Time;durP1;ratioP1;P1;durP2;ratioP2;P2;SDS_P1;SDS_P2;PMS_P1;PMS_P2;Temp;Humidity;BMP_temperature;BMP_pressure;BME280_temperature;BME280_humidity;BME280_pressure;Samples;Min_cycle;Max_cycle;Signal;HPM_P1;HPM_P2
2022/12/18 00:01:17;;;;;;;;;;;;;;;1.46;nan;103305.97;5030868;28;20039;-36
2022/12/18 00:03:42;;;;;;;;;;;;;;;1.45;nan;103301.66;5024953;28;20016;-40
2022/12/18 00:06:08;;;;;;;;;;;;;;;1.43;nan;103301.75;5028514;28;19954;-41
2022/12/18 00:08:34;;;;;;;;;;;;;;;1.39;nan;103308.25;5042290;28;20039;-38
2022/12/18 00:11:05;;;;;;;;;;;;;;;1.37;nan;103312.00;5036406;28;19936;-39
2022/12/18 00:13:31;;;;;;;;;;;;;;;1.38;nan;103308.38;5039331;28;19929;-42
2022/12/18 00:16:01;;;;;;;;;;;;;;;1.43;nan;103316.78;5035958;28;20183;-36
2022/12/18 00:18:26;;;;;;;;;;;;;;;1.39;nan;103316.19;5037754;28;19921;-39
2022/12/18 00:20:51;;;;;;;;;;;;;;;1.33;nan;103315.84;5041194;28;19921;-37
2022/12/18 00:23:17;;;;;;;;;;;;;;;1.31;nan;103318.63;5033727;28;19928;-39
2022/12/18 00:25:42;;;;;;;;;;;;;;;1.30;nan;103324.88;5034069;28;19920;-38
2022/12/18 00:28:07;;;;;;;;;;;;;;;1.32;nan;103328.22;5036204;28;20002;-36
2022/12/18 00:30:33;;;;;;;;;;;;;;;1.31;nan;103333.63;5036679;28;19924;-42
2022/12/18 00:32:58;;;;;;;;;;;;;;;1.33;nan;103339.63;5040357;28;19928;-35
2022/12/18 00:35:24;;;;;;;;;;;;;;;1.37;nan;103335.78;5038448;28;19932;-38
2022/12/18 00:37:49;;;;;;;;;;;;;;;1.40;nan;103330.22;5039861;28;20425;-41
2022/12/18 00:40:14;;;;;;;;;;;;;;;1.41;nan;103339.84;5023236;28;20401;-38
2022/12/18 00:42:55;;;;;;;;;;;;;;;1.31;nan;103345.03;5025443;28;19917;-40
2022/12/18 00:45:27;;;;;;;;;;;;;;;1.26;nan;103338.44;5044880;28;19923;-38
2022/12/18 00:47:53;;;;;;;;;;;;;;;1.28;nan;103342.66;5035909;28;19960;-36
2022/12/18 00:50:18;;;;;;;;;;;;;;;1.29;nan;103348.78;5036302;28;20046;-36
2022/12/18 00:52:44;;;;;;;;;;;;;;;1.33;nan;103345.75;5030975;28;19925;-41
2022/12/18 00:55:10;;;;;;;;;;;;;;;1.35;nan;103343.81;5032091;28;19925;-38
2022/12/18 00:57:35;;;;;;;;;;;;;;;1.35;nan;103341.19;5033075;28;19916;-39
2022/12/18 01:00:01;;;;;;;;;;;;;;;1.29;nan;103341.69;5029761;28;19932;-39
2022/12/18 01:02:26;;;;;;;;;;;;;;;1.27;nan;103338.34;5029083;28;19921;-39
2022/12/18 01:04:51;;;;;;;;;;;;;;;1.17;nan;103332.09;5039145;28;20008;-36
2022/12/18 01:07:17;;;;;;;;;;;;;;;1.13;nan;103341.22;5039081;28;19948;-37
2022/12/18 01:09:42;;;;;;;;;;;;;;;1.12;nan;103339.56;5040485;28;20295;-37
2022/12/18 01:12:07;;;;;;;;;;;;;;;1.08;nan;103348.69;5042664;28;19982;-39
2022/12/18 01:14:33;;;;;;;;;;;;;;;1.01;nan;103344.84;5041665;28;20494;-38
2022/12/18 01:16:58;;;;;;;;;;;;;;;1.04;nan;103352.50;5042868;28;20396;-38
2022/12/18 01:19:23;;;;;;;;;;;;;;;1.07;nan;103346.97;5041132;28;20274;-41
2022/12/18 01:21:49;;;;;;;;;;;;;;;1.05;nan;103346.28;5043526;28;19923;-35
2022/12/18 01:24:14;;;;;;;;;;;;;;;1.05;nan;103354.19;5038250;28;19924;-37
2022/12/18 01:26:39;;;;;;;;;;;;;;;1.05;nan;103352.38;5033503;28;19932;-40
2022/12/18 01:29:05;;;;;;;;;;;;;;;1.06;nan;103351.44;5041947;28;19956;-38
2022/12/18 01:31:32;;;;;;;;;;;;;;;1.04;nan;103349.88;5042127;28;19924;-40
2022/12/18 01:33:57;;;;;;;;;;;;;;;1.07;nan;103342.53;5041916;28;20121;-39
2022/12/18 01:36:22;;;;;;;;;;;;;;;1.13;nan;103343.88;5031924;28;19928;-35
2022/12/18 01:38:48;;;;;;;;;;;;;;;1.15;nan;103341.94;5035335;28;20144;-39
2022/12/18 01:41:14;;;;;;;;;;;;;;;1.19;nan;103348.66;5043167;28;19916;-38
2022/12/18 01:43:45;;;;;;;;;;;;;;;1.20;nan;103355.63;5037076;28;19939;-37
2022/12/18 01:46:10;;;;;;;;;;;;;;;1.20;nan;103364.38;5043936;28;19994;-37
2022/12/18 01:48:36;;;;;;;;;;;;;;;1.18;nan;103360.19;5043573;28;19952;-36
2022/12/18 01:51:02;;;;;;;;;;;;;;;1.18;nan;103360.19;5042182;28;19943;-36
2022/12/18 01:53:27;;;;;;;;;;;;;;;1.18;nan;103368.94;5043325;28;19991;-42
2022/12/18 01:55:54;;;;;;;;;;;;;;;1.13;nan;103359.72;5042591;28;20439;-38
2022/12/18 01:58:32;;;;;;;;;;;;;;;1.17;nan;103369.06;5040317;28;19920;-40
2022/12/18 02:00:57;;;;;;;;;;;;;;;1.14;nan;103369.31;5036614;28;19921;-38
2022/12/18 02:03:22;;;;;;;;;;;;;;;1.11;nan;103369.56;5043179;28;19928;-37
2022/12/18 02:06:10;;;;;;;;;;;;;;;1.12;nan;103361.53;5038355;28;19925;-36
2022/12/18 02:08:38;;;;;;;;;;;;;;;1.16;nan;103367.41;5037575;28;19917;-37
2022/12/18 02:11:09;;;;;;;;;;;;;;;1.15;nan;103363.91;5038895;28;19921;-38
2022/12/18 02:13:35;;;;;;;;;;;;;;;1.14;nan;103364.88;5035228;28;20069;-39
2022/12/18 02:16:08;;;;;;;;;;;;;;;1.15;nan;103363.06;5040854;28;20023;-37
2022/12/18 02:18:36;;;;;;;;;;;;;;;1.16;nan;103356.81;5039293;28;20277;-39
2022/12/18 02:21:04;;;;;;;;;;;;;;;1.12;nan;103364.16;5039119;28;19964;-39
2022/12/18 02:23:29;;;;;;;;;;;;;;;1.12;nan;103369.44;5036650;28;19948;-38
2022/12/18 02:26:04;;;;;;;;;;;;;;;1.14;nan;103362.22;5041701;28;19917;-39
2022/12/18 02:28:31;;;;;;;;;;;;;;;1.18;nan;103365.47;5040707;28;20284;-39
2022/12/18 02:30:59;;;;;;;;;;;;;;;1.16;nan;103370.03;5041596;28;20404;-39
2022/12/18 02:33:25;;;;;;;;;;;;;;;1.13;nan;103371.13;5038603;28;19921;-36
2022/12/18 02:35:53;;;;;;;;;;;;;;;1.17;nan;103375.19;5036040;28;20307;-37
2022/12/18 02:38:19;;;;;;;;;;;;;;;1.17;nan;103375.19;5038943;28;19971;-41
2022/12/18 02:40:45;;;;;;;;;;;;;;;1.21;nan;103381.06;5040951;28;20331;-38
2022/12/18 02:43:11;;;;;;;;;;;;;;;1.25;nan;103387.78;5038810;28;19924;-36
2022/12/18 02:45:46;;;;;;;;;;;;;;;1.33;nan;103389.81;5040569;28;20141;-36
2022/12/18 02:48:11;;;;;;;;;;;;;;;1.31;nan;103386.47;5036781;28;19957;-37
2022/12/18 02:50:45;;;;;;;;;;;;;;;1.29;nan;103385.75;5041507;28;19955;-37
2022/12/18 02:53:11;;;;;;;;;;;;;;;1.29;nan;103393.69;5036727;28;19928;-35
2022/12/18 02:55:39;;;;;;;;;;;;;;;1.28;nan;103395.47;5026209;28;19920;-39
2022/12/18 02:58:11;;;;;;;;;;;;;;;1.27;nan;103388.50;5025629;28;20427;-37
2022/12/18 03:00:41;;;;;;;;;;;;;;;1.31;nan;103395.22;5027027;28;19928;-37
2022/12/18 03:03:11;;;;;;;;;;;;;;;1.31;nan;103389.94;5029202;28;20458;-39
2022/12/18 03:06:11;;;;;;;;;;;;;;;1.32;nan;103388.13;5038757;28;19917;-38
2022/12/18 03:08:42;;;;;;;;;;;;;;;1.30;nan;103390.06;4963522;28;19961;-36
2022/12/18 03:11:09;;;;;;;;;;;;;;;1.29;nan;103394.50;5031542;28;20458;-39
2022/12/18 03:13:45;;;;;;;;;;;;;;;1.21;nan;103391.63;5043891;28;20343;-38
2022/12/18 03:16:15;;;;;;;;;;;;;;;1.17;nan;103400.75;5038873;28;20061;-37
2022/12/18 03:18:49;;;;;;;;;;;;;;;1.16;nan;103396.44;5040580;28;20020;-38
2022/12/18 03:21:17;;;;;;;;;;;;;;;1.20;nan;103392.59;5040249;28;19920;-36
2022/12/18 03:23:44;;;;;;;;;;;;;;;1.20;nan;103400.50;5040717;28;20361;-39
2022/12/18 03:26:12;;;;;;;;;;;;;;;1.13;nan;103404.59;5033899;28;19917;-43
2022/12/18 03:28:41;;;;;;;;;;;;;;;1.10;nan;103410.13;5036502;28;19924;-41
2022/12/18 03:31:09;;;;;;;;;;;;;;;1.07;nan;103405.91;5032485;28;19944;-38
2022/12/18 03:33:38;;;;;;;;;;;;;;;1.05;nan;103409.63;5034762;28;19921;-36
2022/12/18 03:36:03;;;;;;;;;;;;;;;0.99;nan;103399.56;5026482;28;19963;-39
2022/12/18 03:38:29;;;;;;;;;;;;;;;0.90;nan;103401.97;5035169;28;20051;-37
2022/12/18 03:40:54;;;;;;;;;;;;;;;0.88;nan;103403.88;5035040;28;19913;-36
2022/12/18 03:43:22;;;;;;;;;;;;;;;0.94;nan;103407.84;5033379;28;19924;-37
2022/12/18 03:45:52;;;;;;;;;;;;;;;0.90;nan;103403.78;5029596;28;20321;-40
2022/12/18 03:48:27;;;;;;;;;;;;;;;0.88;nan;103400.38;5028641;28;20006;-40
2022/12/18 03:50:58;;;;;;;;;;;;;;;0.85;nan;103403.28;5027205;28;19931;-39
2022/12/18 03:53:36;;;;;;;;;;;;;;;0.85;nan;103405.91;5027987;28;19951;-36
2022/12/18 03:56:03;;;;;;;;;;;;;;;0.85;nan;103409.41;5026621;28;20035;-39
2022/12/18 03:58:31;;;;;;;;;;;;;;;0.84;nan;103415.63;5034010;28;19917;-39
2022/12/18 04:01:00;;;;;;;;;;;;;;;0.82;nan;103417.56;5029664;28;19924;-41
2022/12/18 04:03:26;;;;;;;;;;;;;;;0.85;nan;103419.13;5029000;28;21608;-39
2022/12/18 04:05:52;;;;;;;;;;;;;;;0.84;nan;103422.72;5034248;28;19917;-36
2022/12/18 04:08:18;;;;;;;;;;;;;;;0.82;nan;103416.72;5038535;28;19964;-38
2022/12/18 04:10:43;;;;;;;;;;;;;;;0.81;nan;103415.88;5035396;28;19971;-39
2022/12/18 04:13:09;;;;;;;;;;;;;;;0.81;nan;103421.16;5032654;28;20332;-37
2022/12/18 04:15:35;;;;;;;;;;;;;;;0.81;nan;103418.50;5031685;28;19971;-41
2022/12/18 04:18:01;;;;;;;;;;;;;;;0.81;nan;103421.16;5030148;28;19951;-39
2022/12/18 04:20:27;;;;;;;;;;;;;;;0.79;nan;103409.88;5036517;28;19917;-37
2022/12/18 04:22:52;;;;;;;;;;;;;;;0.74;nan;103425.25;5031916;28;19987;-37
2022/12/18 04:25:18;;;;;;;;;;;;;;;0.74;nan;103430.50;5035122;28;20690;-39
2022/12/18 04:27:43;;;;;;;;;;;;;;;0.77;nan;103429.44;5037093;28;19951;-40
2022/12/18 04:30:09;;;;;;;;;;;;;;;0.80;nan;103440.59;5035862;28;19920;-38
2022/12/18 04:32:34;;;;;;;;;;;;;;;0.82;nan;103440.47;5037710;28;19927;-35
2022/12/18 04:34:59;;;;;;;;;;;;;;;0.85;nan;103450.78;5027883;28;19921;-38
2022/12/18 04:37:25;;;;;;;;;;;;;;;0.83;nan;103442.16;5027348;28;19927;-41
2022/12/18 04:39:50;;;;;;;;;;;;;;;0.80;nan;103445.03;5036093;28;19917;-40
2022/12/18 04:42:15;;;;;;;;;;;;;;;0.81;nan;103450.19;5032644;28;19932;-36
2022/12/18 04:44:41;;;;;;;;;;;;;;;0.81;nan;103446.72;5033696;28;19971;-37
2022/12/18 04:47:07;;;;;;;;;;;;;;;0.78;nan;103447.78;5032490;28;20478;-39
2022/12/18 04:49:32;;;;;;;;;;;;;;;0.74;nan;103432.31;5032697;28;19917;-37
2022/12/18 04:51:58;;;;;;;;;;;;;;;0.66;nan;103427.59;5031205;28;19925;-42
2022/12/18 04:54:23;;;;;;;;;;;;;;;0.68;nan;103430.13;5037565;28;20265;-35
2022/12/18 04:56:48;;;;;;;;;;;;;;;0.65;nan;103425.09;5037547;28;20290;-42
2022/12/18 04:59:14;;;;;;;;;;;;;;;0.69;nan;103421.25;5031334;28;20444;-36
2022/12/18 05:01:39;;;;;;;;;;;;;;;0.67;nan;103425.81;5031322;28;19952;-39
2022/12/18 05:04:05;;;;;;;;;;;;;;;0.63;nan;103443.69;5031338;28;20384;-37
2022/12/18 05:06:30;;;;;;;;;;;;;;;0.57;nan;103445.00;5035126;28;19917;-38
2022/12/18 05:08:56;;;;;;;;;;;;;;;0.47;nan;103444.00;5031420;28;19927;-38
2022/12/18 05:11:21;;;;;;;;;;;;;;;0.47;nan;103458.97;5032296;28;19921;-38
2022/12/18 05:13:46;;;;;;;;;;;;;;;0.44;nan;103457.41;5034215;28;20004;-41
2022/12/18 05:16:12;;;;;;;;;;;;;;;0.44;nan;103459.22;5035298;28;19972;-41
2022/12/18 05:18:38;;;;;;;;;;;;;;;0.41;nan;103460.28;5033282;28;19979;-41
2022/12/18 05:21:04;;;;;;;;;;;;;;;0.41;nan;103462.09;5024483;28;19963;-38
2022/12/18 05:23:29;;;;;;;;;;;;;;;0.44;nan;103460.06;5032657;28;19917;-39
2022/12/18 05:25:59;;;;;;;;;;;;;;;0.50;nan;103470.13;5031448;28;20514;-41
2022/12/18 05:28:25;;;;;;;;;;;;;;;0.50;nan;103470.13;5031607;28;19925;-37
2022/12/18 05:30:51;;;;;;;;;;;;;;;0.48;nan;103465.94;5031674;28;19917;-40
2022/12/18 05:33:17;;;;;;;;;;;;;;;0.46;nan;103470.50;5036932;28;19955;-40
2022/12/18 05:35:42;;;;;;;;;;;;;;;0.43;nan;103476.00;5034869;28;19956;-43
2022/12/18 05:38:08;;;;;;;;;;;;;;;0.41;nan;103488.47;5029456;28;19921;-36
2022/12/18 05:40:33;;;;;;;;;;;;;;;0.43;nan;103505.00;5036224;28;19932;-40
2022/12/18 05:42:59;;;;;;;;;;;;;;;0.43;nan;103512.94;5033425;28;19990;-39
2022/12/18 05:45:24;;;;;;;;;;;;;;;0.45;nan;103509.22;5024716;28;19932;-39
2022/12/18 05:47:49;;;;;;;;;;;;;;;0.49;nan;103513.31;5029623;28;19917;-39
2022/12/18 05:50:15;;;;;;;;;;;;;;;0.50;nan;103504.44;5026504;28;19925;-39
2022/12/18 05:52:40;;;;;;;;;;;;;;;0.48;nan;103502.88;5031258;28;19921;-39
2022/12/18 05:55:06;;;;;;;;;;;;;;;0.49;nan;103505.38;5033877;28;19929;-39
2022/12/18 05:57:31;;;;;;;;;;;;;;;0.46;nan;103496.88;5033335;28;20430;-37
2022/12/18 05:59:56;;;;;;;;;;;;;;;0.43;nan;103505.84;5039511;28;19921;-37
2022/12/18 06:02:22;;;;;;;;;;;;;;;0.47;nan;103511.75;5031906;28;19923;-39
2022/12/18 06:04:47;;;;;;;;;;;;;;;0.42;nan;103511.25;5038404;28;19925;-38
2022/12/18 06:07:12;;;;;;;;;;;;;;;0.47;nan;103517.00;5039865;28;20020;-39
2022/12/18 06:09:38;;;;;;;;;;;;;;;0.50;nan;103522.91;5036762;28;20012;-37
2022/12/18 06:12:03;;;;;;;;;;;;;;;0.49;nan;103515.09;5030035;28;19975;-39
2022/12/18 06:14:29;;;;;;;;;;;;;;;0.41;nan;103517.47;5031252;28;19923;-38
2022/12/18 06:16:54;;;;;;;;;;;;;;;0.33;nan;103511.91;5036227;28;19917;-35
2022/12/18 06:19:19;;;;;;;;;;;;;;;0.32;nan;103518.97;5032275;28;19921;-43
2022/12/18 06:21:45;;;;;;;;;;;;;;;0.30;nan;103519.09;5022402;28;19917;-37
2022/12/18 06:24:10;;;;;;;;;;;;;;;0.31;nan;103512.03;5034937;28;19932;-39
2022/12/18 06:26:39;;;;;;;;;;;;;;;0.29;nan;103520.06;5029070;28;20229;-36
2022/12/18 06:29:05;;;;;;;;;;;;;;;0.32;nan;103523.41;5030874;28;19964;-37
2022/12/18 06:31:30;;;;;;;;;;;;;;;0.32;nan;103528.69;5036744;28;20005;-40
2022/12/18 06:33:55;;;;;;;;;;;;;;;0.33;nan;103536.50;5032167;28;19987;-42
2022/12/18 06:36:21;;;;;;;;;;;;;;;0.30;nan;103549.91;5041389;28;19917;-39
2022/12/18 06:38:46;;;;;;;;;;;;;;;0.33;nan;103546.19;5038179;28;19924;-42
2022/12/18 06:41:16;;;;;;;;;;;;;;;0.33;nan;103548.84;5036636;28;20806;-36
2022/12/18 06:43:42;;;;;;;;;;;;;;;0.33;nan;103541.75;5037823;28;19917;-36
2022/12/18 06:46:08;;;;;;;;;;;;;;;0.38;nan;103557.28;5033353;28;20438;-33
2022/12/18 06:48:33;;;;;;;;;;;;;;;0.39;nan;103561.59;5036309;28;19952;-34
2022/12/18 06:50:59;;;;;;;;;;;;;;;0.36;nan;103561.78;5037787;28;20011;-34
2022/12/18 06:53:25;;;;;;;;;;;;;;;0.34;nan;103563.69;5031641;28;19908;-33
2022/12/18 06:55:50;;;;;;;;;;;;;;;0.36;nan;103559.16;5037165;28;19924;-33
2022/12/18 06:58:16;;;;;;;;;;;;;;;0.41;nan;103580.78;5034426;28;20321;-33
2022/12/18 07:00:41;;;;;;;;;;;;;;;0.39;nan;103580.06;5035125;28;19925;-33
2022/12/18 07:03:07;;;;;;;;;;;;;;;0.35;nan;103586.47;5033218;28;19916;-33
2022/12/18 07:05:32;;;;;;;;;;;;;;;0.29;nan;103590.41;5037726;28;19948;-33
2022/12/18 07:07:58;;;;;;;;;;;;;;;0.24;nan;103587.28;5036861;28;20319;-33
2022/12/18 07:10:23;;;;;;;;;;;;;;;0.25;nan;103576.63;5031037;28;20321;-33
2022/12/18 07:12:48;;;;;;;;;;;;;;;0.32;nan;103577.00;5038342;28;20376;-34
2022/12/18 07:15:14;;;;;;;;;;;;;;;0.29;nan;103583.34;5041204;28;19920;-33
2022/12/18 07:17:39;;;;;;;;;;;;;;;0.24;nan;103574.94;5037558;28;19917;-33
2022/12/18 07:20:05;;;;;;;;;;;;;;;0.20;nan;103562.94;5037747;28;19964;-34
2022/12/18 07:22:30;;;;;;;;;;;;;;;0.11;nan;103563.59;5038511;28;19971;-33
2022/12/18 07:24:55;;;;;;;;;;;;;;;0.07;nan;103577.09;5036830;28;20372;-34
2022/12/18 07:27:21;;;;;;;;;;;;;;;-0.04;nan;103570.78;5032188;28;20444;-32
2022/12/18 07:29:46;;;;;;;;;;;;;;;-0.04;nan;103564.69;5027766;28;20391;-33
2022/12/18 07:32:12;;;;;;;;;;;;;;;-0.01;nan;103567.09;5032443;28;20449;-33
2022/12/18 07:34:37;;;;;;;;;;;;;;;0.03;nan;103565.94;5034678;28;19917;-32
2022/12/18 07:37:02;;;;;;;;;;;;;;;0.04;nan;103587.88;5039655;28;19954;-32
2022/12/18 07:39:28;;;;;;;;;;;;;;;-0.04;nan;103577.84;5035904;28;19947;-33
2022/12/18 07:44:38;;;;;;;;;;;;;;;-0.17;nan;103587.59;5035993;28;19992;-32
2022/12/18 07:47:04;;;;;;;;;;;;;;;-0.16;nan;103587.50;5036152;28;20523;-34
2022/12/18 07:49:29;;;;;;;;;;;;;;;-0.05;nan;103591.97;5035136;28;20266;-34
2022/12/18 07:51:55;;;;;;;;;;;;;;;-0.05;nan;103589.34;5037035;28;19921;-33
2022/12/18 07:54:21;;;;;;;;;;;;;;;-0.05;nan;103595.47;5031241;28;19939;-34
2022/12/18 07:56:46;;;;;;;;;;;;;;;-0.03;nan;103592.72;5029530;28;19920;-33
2022/12/18 07:59:11;;;;;;;;;;;;;;;-0.02;nan;103595.25;5028624;28;19925;-34
2022/12/18 08:01:37;;;;;;;;;;;;;;;0.06;nan;103588.59;5029452;28;19986;-33
2022/12/18 08:04:02;;;;;;;;;;;;;;;0.08;nan;103595.44;5028191;28;19935;-34
2022/12/18 08:06:27;;;;;;;;;;;;;;;0.12;nan;103588.16;5031476;28;19924;-35
2022/12/18 08:08:54;;;;;;;;;;;;;;;0.18;nan;103583.31;5032925;28;19977;-33
2022/12/18 08:11:19;;;;;;;;;;;;;;;0.22;nan;103600.56;5033572;28;20422;-33
2022/12/18 08:13:45;;;;;;;;;;;;;;;0.21;nan;103613.88;5036995;28;20011;-32
2022/12/18 08:16:10;;;;;;;;;;;;;;;0.29;nan;103617.63;5039415;28;19925;-33
2022/12/18 08:18:36;;;;;;;;;;;;;;;0.25;nan;103613.53;5034924;28;20343;-33
2022/12/18 08:21:09;;;;;;;;;;;;;;;0.22;nan;103608.50;5037999;28;19967;-33
2022/12/18 08:23:34;;;;;;;;;;;;;;;0.23;nan;103606.69;5036887;28;19955;-34
2022/12/18 08:26:00;;;;;;;;;;;;;;;0.21;nan;103616.50;5036527;28;19957;-32
2022/12/18 08:28:25;;;;;;;;;;;;;;;0.19;nan;103608.72;5035310;28;20412;-33
2022/12/18 08:30:51;;;;;;;;;;;;;;;0.14;nan;103605.53;5037253;28;20387;-34
2022/12/18 08:33:17;;;;;;;;;;;;;;;0.19;nan;103605.25;5033968;28;19920;-32
2022/12/18 08:35:42;;;;;;;;;;;;;;;0.26;nan;103615.22;5038204;28;20387;-34
2022/12/18 08:38:07;;;;;;;;;;;;;;;0.23;nan;103604.91;5038756;28;19921;-32
2022/12/18 08:40:33;;;;;;;;;;;;;;;0.21;nan;103612.06;5033188;28;19924;-33
2022/12/18 08:45:42;;;;;;;;;;;;;;;0.23;nan;103602.25;5036349;28;19924;-33
2022/12/18 08:48:07;;;;;;;;;;;;;;;0.27;nan;103601.09;5037945;28;20300;-32
2022/12/18 08:50:32;;;;;;;;;;;;;;;0.27;nan;103600.25;5035003;28;20365;-33
2022/12/18 08:52:58;;;;;;;;;;;;;;;0.26;nan;103603.81;5033851;28;20385;-32
2022/12/18 08:55:23;;;;;;;;;;;;;;;0.27;nan;103603.72;5033620;28;19921;-32
2022/12/18 08:57:49;;;;;;;;;;;;;;;0.35;nan;103607.59;5031943;28;20020;-32
2022/12/18 09:00:15;;;;;;;;;;;;;;;0.35;nan;103608.44;5031717;28;19924;-33
2022/12/18 09:02:40;;;;;;;;;;;;;;;0.37;nan;103616.25;5030661;28;19924;-34
2022/12/18 09:05:06;;;;;;;;;;;;;;;0.42;nan;103617.59;5037040;28;19924;-32
2022/12/18 09:07:31;;;;;;;;;;;;;;;0.44;nan;103620.13;5033516;28;19921;-33
2022/12/18 09:09:56;;;;;;;;;;;;;;;0.46;nan;103620.84;5029897;28;19929;-33
2022/12/18 09:12:22;;;;;;;;;;;;;;;0.44;nan;103614.84;5032667;28;20015;-32
2022/12/18 09:14:47;;;;;;;;;;;;;;;0.43;nan;103621.06;5039425;28;20463;-32
2022/12/18 09:17:12;;;;;;;;;;;;;;;0.44;nan;103638.59;5032560;28;19974;-36
2022/12/18 09:19:38;;;;;;;;;;;;;;;0.41;nan;103634.38;5036225;28;20455;-32
2022/12/18 09:22:03;;;;;;;;;;;;;;;0.44;nan;103643.88;5032256;28;19924;-35
2022/12/18 09:24:29;;;;;;;;;;;;;;;0.43;nan;103640.38;5038458;28;19968;-32
2022/12/18 09:26:54;;;;;;;;;;;;;;;0.46;nan;103628.75;5032651;28;19916;-32
2022/12/18 09:29:20;;;;;;;;;;;;;;;0.44;nan;103641.22;5037034;28;20019;-33
2022/12/18 09:31:46;;;;;;;;;;;;;;;0.47;nan;103631.28;5029460;28;19921;-33
2022/12/18 09:34:11;;;;;;;;;;;;;;;0.49;nan;103641.72;5030194;28;19928;-34
2022/12/18 09:36:37;;;;;;;;;;;;;;;0.48;nan;103647.94;5035569;28;20339;-33
2022/12/18 09:39:03;;;;;;;;;;;;;;;0.51;nan;103653.84;5040334;28;20383;-34
2022/12/18 09:41:40;;;;;;;;;;;;;;;0.52;nan;103641.50;5029805;28;20359;-33
2022/12/18 09:44:23;;;;;;;;;;;;;;;0.52;nan;103644.97;5029611;28;20108;-33
2022/12/18 09:47:12;;;;;;;;;;;;;;;0.56;nan;103635.06;5037897;28;20016;-33
2022/12/18 09:49:40;;;;;;;;;;;;;;;0.62;nan;103645.16;5023585;28;19925;-33
2022/12/18 09:52:11;;;;;;;;;;;;;;;0.65;nan;103644.94;5030911;28;19924;-32
2022/12/18 09:54:44;;;;;;;;;;;;;;;0.68;nan;103644.69;5035413;28;20261;-32
2022/12/18 09:57:13;;;;;;;;;;;;;;;0.69;nan;103638.47;5031983;28;20459;-33
2022/12/18 09:59:39;;;;;;;;;;;;;;;0.68;nan;103636.78;5037482;28;19963;-32
2022/12/18 10:02:19;;;;;;;;;;;;;;;0.71;nan;103635.72;5035115;28;19970;-34
2022/12/18 10:04:49;;;;;;;;;;;;;;;0.72;nan;103633.00;5037038;28;19925;-32
2022/12/18 10:07:28;;;;;;;;;;;;;;;0.81;nan;103642.84;5036684;28;20581;-34
2022/12/18 10:10:02;;;;;;;;;;;;;;;0.88;nan;103637.97;5029556;28;20004;-33
2022/12/18 10:12:43;;;;;;;;;;;;;;;0.91;nan;103635.13;5034378;28;19936;-33
2022/12/18 10:15:21;;;;;;;;;;;;;;;0.99;nan;103630.09;5035090;28;20352;-33
2022/12/18 10:18:02;;;;;;;;;;;;;;;0.99;nan;103631.91;5037698;28;20296;-33
2022/12/18 10:20:48;;;;;;;;;;;;;;;0.93;nan;103616.53;5029710;28;19967;-34
2022/12/18 10:23:14;;;;;;;;;;;;;;;0.92;nan;103617.47;5023395;28;20056;-34
2022/12/18 10:25:45;;;;;;;;;;;;;;;0.97;nan;103629.38;5023357;28;19936;-33
2022/12/18 10:28:15;;;;;;;;;;;;;;;0.96;nan;103626.84;5026310;28;19924;-34
2022/12/18 10:30:41;;;;;;;;;;;;;;;0.92;nan;103617.47;5024999;28;20080;-34
2022/12/18 10:33:10;;;;;;;;;;;;;;;0.97;nan;103615.31;5026720;28;20560;-33
2022/12/18 10:35:36;;;;;;;;;;;;;;;1.00;nan;103605.38;5028309;28;19972;-34
2022/12/18 10:38:03;;;;;;;;;;;;;;;0.99;nan;103602.84;5030487;28;20008;-33
2022/12/18 10:40:28;;;;;;;;;;;;;;;1.00;nan;103594.81;5034558;28;19927;-33
2022/12/18 10:43:03;;;;;;;;;;;;;;;1.06;nan;103590.84;5025777;28;20137;-33
2022/12/18 10:45:29;;;;;;;;;;;;;;;1.10;nan;103595.81;5028498;28;20039;-34
2022/12/18 10:47:54;;;;;;;;;;;;;;;1.11;nan;103580.81;5026152;28;19944;-33
2022/12/18 10:50:24;;;;;;;;;;;;;;;1.16;nan;103578.66;5028001;28;20093;-34
2022/12/18 10:52:57;;;;;;;;;;;;;;;1.22;nan;103578.19;5028539;28;19933;-34
2022/12/18 10:55:23;;;;;;;;;;;;;;;1.22;nan;103575.53;5031638;28;19974;-34
2022/12/18 10:57:49;;;;;;;;;;;;;;;1.20;nan;103569.53;5029312;28;19928;-32
2022/12/18 11:00:28;;;;;;;;;;;;;;;1.22;nan;103564.97;5030531;28;19952;-32
2022/12/18 11:02:53;;;;;;;;;;;;;;;1.20;nan;103558.97;5033934;28;20047;-33
2022/12/18 11:05:29;;;;;;;;;;;;;;;1.18;nan;103563.53;5034804;28;19999;-32
2022/12/18 11:07:56;;;;;;;;;;;;;;;1.27;nan;103565.47;5030790;28;19927;-32
2022/12/18 11:10:22;;;;;;;;;;;;;;;1.29;nan;103571.47;5031121;28;20415;-34
2022/12/18 11:12:48;;;;;;;;;;;;;;;1.33;nan;103575.56;5031984;28;19929;-33
2022/12/18 11:15:19;;;;;;;;;;;;;;;1.37;nan;103574.34;5032299;28;19924;-33
2022/12/18 11:17:46;;;;;;;;;;;;;;;1.48;nan;103573.53;5033854;28;19920;-33
2022/12/18 11:20:26;;;;;;;;;;;;;;;1.54;nan;103559.84;5033982;28;19924;-33
2022/12/18 11:23:00;;;;;;;;;;;;;;;1.59;nan;103564.75;5034837;28;19924;-33
2022/12/18 11:25:29;;;;;;;;;;;;;;;1.59;nan;103560.31;5036337;28;20202;-33
2022/12/18 11:27:56;;;;;;;;;;;;;;;1.61;nan;103552.25;5036170;28;19917;-32
2022/12/18 11:30:29;;;;;;;;;;;;;;;1.66;nan;103547.47;5034800;28;19925;-33
2022/12/18 11:33:15;;;;;;;;;;;;;;;1.71;nan;103538.22;5037034;28;19941;-32
2022/12/18 11:36:10;;;;;;;;;;;;;;;1.73;nan;103549.50;5036018;28;19925;-33
2022/12/18 11:38:37;;;;;;;;;;;;;;;1.76;nan;103548.41;5019336;28;19943;-32
2022/12/18 11:41:05;;;;;;;;;;;;;;;1.82;nan;103561.16;5038234;28;19987;-33
2022/12/18 11:43:53;;;;;;;;;;;;;;;1.80;nan;103552.53;5036697;28;20008;-33
2022/12/18 11:46:25;;;;;;;;;;;;;;;1.78;nan;103557.91;5034195;28;20127;-33
2022/12/18 11:48:58;;;;;;;;;;;;;;;1.78;nan;103562.34;5044975;28;19917;-33
2022/12/18 11:51:31;;;;;;;;;;;;;;;1.80;nan;103573.66;5041148;28;19947;-34
2022/12/18 11:53:57;;;;;;;;;;;;;;;1.78;nan;103571.13;5038430;28;20408;-34
2022/12/18 11:56:28;;;;;;;;;;;;;;;1.80;nan;103574.50;5035115;28;19917;-33
2022/12/18 11:59:20;;;;;;;;;;;;;;;1.74;nan;103564.41;5038170;28;19917;-33
2022/12/18 12:01:51;;;;;;;;;;;;;;;1.75;nan;103562.59;5035049;28;19967;-33
2022/12/18 12:04:16;;;;;;;;;;;;;;;1.76;nan;103559.00;5037333;28;19979;-32
2022/12/18 12:06:48;;;;;;;;;;;;;;;1.77;nan;103560.66;5039290;28;20388;-33
2022/12/18 12:09:37;;;;;;;;;;;;;;;1.81;nan;103565.63;5027261;28;21373;-33
2022/12/18 12:12:15;;;;;;;;;;;;;;;1.82;nan;103558.53;5035004;28;19926;-33
2022/12/18 12:14:52;;;;;;;;;;;;;;;1.83;nan;103554.91;5037114;28;20458;-35
2022/12/18 12:17:20;;;;;;;;;;;;;;;1.86;nan;103551.19;5037402;28;19921;-36
2022/12/18 12:20:01;;;;;;;;;;;;;;;1.88;nan;103551.91;5041773;28;20094;-36
2022/12/18 12:22:49;;;;;;;;;;;;;;;1.93;nan;103555.00;5035533;28;19951;-38
2022/12/18 12:25:27;;;;;;;;;;;;;;;1.95;nan;103553.91;5039664;28;19917;-39
2022/12/18 12:27:59;;;;;;;;;;;;;;;1.95;nan;103564.50;5034155;28;20027;-37
2022/12/18 12:30:35;;;;;;;;;;;;;;;1.98;nan;103574.00;5035936;28;19925;-36
2022/12/18 12:33:16;;;;;;;;;;;;;;;1.95;nan;103569.78;5037049;28;19932;-36
2022/12/18 12:35:48;;;;;;;;;;;;;;;1.89;nan;103567.63;5038328;28;19932;-36
2022/12/18 12:38:17;;;;;;;;;;;;;;;1.86;nan;103561.75;5036197;28;19963;-34
2022/12/18 12:40:46;;;;;;;;;;;;;;;1.88;nan;103573.06;5033788;28;19928;-36
2022/12/18 12:43:21;;;;;;;;;;;;;;;1.82;nan;103577.03;5031369;28;19951;-35
2022/12/18 12:45:50;;;;;;;;;;;;;;;1.87;nan;103585.44;5039809;28;20310;-33
2022/12/18 12:48:36;;;;;;;;;;;;;;;1.77;nan;103580.00;5036648;28;19931;-38
2022/12/18 12:51:04;;;;;;;;;;;;;;;1.75;nan;103591.66;5031180;28;19921;-37
2022/12/18 12:53:32;;;;;;;;;;;;;;;1.72;nan;103600.69;5036761;28;19947;-38
2022/12/18 12:55:58;;;;;;;;;;;;;;;1.72;nan;103591.91;5040330;28;19920;-36
2022/12/18 12:58:32;;;;;;;;;;;;;;;1.79;nan;103587.81;5037451;28;20303;-40
2022/12/18 13:01:17;;;;;;;;;;;;;;;1.83;nan;103588.44;5033159;28;19925;-35
2022/12/18 13:03:42;;;;;;;;;;;;;;;1.90;nan;103593.13;5037100;28;19928;-39
2022/12/18 13:06:11;;;;;;;;;;;;;;;1.98;nan;103596.00;5039839;28;19948;-38
2022/12/18 13:08:56;;;;;;;;;;;;;;;2.04;nan;103598.16;5044765;28;19917;-38
2022/12/18 13:14:22;;;;;;;;;;;;;;;1.92;nan;103593.00;5034709;28;19956;-36
2022/12/18 13:16:48;;;;;;;;;;;;;;;1.91;nan;103586.03;5034754;28;20454;-36
2022/12/18 13:19:25;;;;;;;;;;;;;;;1.94;nan;103597.19;5040074;28;19939;-34
2022/12/18 13:21:54;;;;;;;;;;;;;;;1.95;nan;103593.59;5038130;28;19948;-39